sensor_id;sensor_type;location;lat;lon;timestamp;temperature;humidity
37050;DHT22;22958;51.232;6.826;2023-11-21T00:00:15;8.50;99.90
37050;DHT22;22958;51.232;6.826;2023-11-21T00:02:41;8.40;99.90
37050;DHT22;22958;51.232;6.826;2023-11-21T00:05:08;8.40;99.90
37050;DHT22;22958;51.232;6.826;2023-11-21T00:07:37;8.40;99.90
37050;DHT22;22958;51.232;6.826;2023-11-21T00:10:04;8.40;99.90
37050;DHT22;22958;51.232;6.826;2023-11-21T00:12:31;8.40;99.90
37050;DHT22;22958;51.232;6.826;2023-11-21T00:14:57;8.40;99.90
37050;DHT22;22958;51.232;6.826;2023-11-21T00:17:23;8.40;99.90
37050;DHT22;22958;51.232;6.826;2023-11-21T00:19:48;8.50;99.90
37050;DHT22;22958;51.232;6.826;2023-11-21T00:22:15;8.50;99.90
37050;DHT22;22958;51.232;6.826;2023-11-21T00:24:41;8.50;99.90
37050;DHT22;22958;51.232;6.826;2023-11-21T00:27:07;8.50;99.90
37050;DHT22;22958;51.232;6.826;2023-11-21T00:29:32;8.50;99.90
37050;DHT22;22958;51.232;6.826;2023-11-21T00:31:58;8.50;99.90
37050;DHT22;22958;51.232;6.826;2023-11-21T00:34:23;8.60;99.90
37050;DHT22;22958;51.232;6.826;2023-11-21T00:36:49;8.60;99.90
37050;DHT22;22958;51.232;6.826;2023-11-21T00:39:14;8.60;99.90
37050;DHT22;22958;51.232;6.826;2023-11-21T00:41:40;8.60;99.90
37050;DHT22;22958;51.232;6.826;2023-11-21T00:44:07;8.60;99.90
37050;DHT22;22958;51.232;6.826;2023-11-21T00:46:32;8.60;99.90
37050;DHT22;22958;51.232;6.826;2023-11-21T00:48:58;8.60;99.90
37050;DHT22;22958;51.232;6.826;2023-11-21T00:51:23;8.60;99.90
37050;DHT22;22958;51.232;6.826;2023-11-21T00:53:50;8.70;99.90
37050;DHT22;22958;51.232;6.826;2023-11-21T00:56:16;8.60;99.90
37050;DHT22;22958;51.232;6.826;2023-11-21T00:58:41;8.70;99.90
37050;DHT22;22958;51.232;6.826;2023-11-21T01:01:15;8.70;99.90
37050;DHT22;22958;51.232;6.826;2023-11-21T01:03:40;8.70;99.90
37050;DHT22;22958;51.232;6.826;2023-11-21T01:06:06;8.60;99.90
37050;DHT22;22958;51.232;6.826;2023-11-21T01:08:32;8.60;99.90
37050;DHT22;22958;51.232;6.826;2023-11-21T01:10:58;8.60;99.90
37050;DHT22;22958;51.232;6.826;2023-11-21T01:13:23;8.60;99.90
37050;DHT22;22958;51.232;6.826;2023-11-21T01:15:49;8.50;99.90
37050;DHT22;22958;51.232;6.826;2023-11-21T01:18:15;8.50;99.90
37050;DHT22;22958;51.232;6.826;2023-11-21T01:20:41;8.40;99.90
37050;DHT22;22958;51.232;6.826;2023-11-21T01:23:06;8.40;99.90
37050;DHT22;22958;51.232;6.826;2023-11-21T01:25:32;8.30;99.90
37050;DHT22;22958;51.232;6.826;2023-11-21T01:27:57;8.30;99.90
37050;DHT22;22958;51.232;6.826;2023-11-21T01:30:23;8.20;99.90
37050;DHT22;22958;51.232;6.826;2023-11-21T01:32:48;8.20;99.90
37050;DHT22;22958;51.232;6.826;2023-11-21T01:35:14;8.20;99.90
37050;DHT22;22958;51.232;6.826;2023-11-21T01:37:39;8.10;99.90
37050;DHT22;22958;51.232;6.826;2023-11-21T01:40:05;8.10;99.90
37050;DHT22;22958;51.232;6.826;2023-11-21T01:42:39;8.10;99.90
37050;DHT22;22958;51.232;6.826;2023-11-21T01:45:06;8.10;99.90
37050;DHT22;22958;51.232;6.826;2023-11-21T01:47:33;8.10;99.90
37050;DHT22;22958;51.232;6.826;2023-11-21T01:49:59;8.10;99.90
37050;DHT22;22958;51.232;6.826;2023-11-21T01:52:25;8.10;99.90
37050;DHT22;22958;51.232;6.826;2023-11-21T01:54:52;8.00;99.90
37050;DHT22;22958;51.232;6.826;2023-11-21T01:57:19;8.10;99.90
37050;DHT22;22958;51.232;6.826;2023-11-21T01:59:48;8.10;99.90
37050;DHT22;22958;51.232;6.826;2023-11-21T02:02:14;8.20;99.90
37050;DHT22;22958;51.232;6.826;2023-11-21T02:04:39;8.20;99.90
37050;DHT22;22958;51.232;6.826;2023-11-21T02:07:05;8.20;99.90
37050;DHT22;22958;51.232;6.826;2023-11-21T02:09:33;8.20;99.90
37050;DHT22;22958;51.232;6.826;2023-11-21T02:12:00;8.20;99.90
37050;DHT22;22958;51.232;6.826;2023-11-21T02:14:26;8.20;99.90
37050;DHT22;22958;51.232;6.826;2023-11-21T02:16:53;8.30;99.90
37050;DHT22;22958;51.232;6.826;2023-11-21T02:19:21;8.30;99.90
37050;DHT22;22958;51.232;6.826;2023-11-21T02:21:52;8.30;99.90
37050;DHT22;22958;51.232;6.826;2023-11-21T02:24:20;8.20;99.90
37050;DHT22;22958;51.232;6.826;2023-11-21T02:26:46;8.30;99.90
37050;DHT22;22958;51.232;6.826;2023-11-21T02:29:12;8.30;99.90
37050;DHT22;22958;51.232;6.826;2023-11-21T02:31:38;8.30;99.90
37050;DHT22;22958;51.232;6.826;2023-11-21T02:34:15;8.30;99.90
37050;DHT22;22958;51.232;6.826;2023-11-21T02:36:40;8.40;99.90
37050;DHT22;22958;51.232;6.826;2023-11-21T02:39:08;8.40;99.90
37050;DHT22;22958;51.232;6.826;2023-11-21T02:41:33;8.40;99.90
37050;DHT22;22958;51.232;6.826;2023-11-21T02:44:00;8.40;99.90
37050;DHT22;22958;51.232;6.826;2023-11-21T02:46:26;8.40;99.90
37050;DHT22;22958;51.232;6.826;2023-11-21T02:48:51;8.40;99.90
37050;DHT22;22958;51.232;6.826;2023-11-21T02:51:19;8.40;99.90
37050;DHT22;22958;51.232;6.826;2023-11-21T02:53:44;8.40;99.90
37050;DHT22;22958;51.232;6.826;2023-11-21T02:56:12;8.40;99.90
37050;DHT22;22958;51.232;6.826;2023-11-21T02:58:37;8.40;99.90
37050;DHT22;22958;51.232;6.826;2023-11-21T03:01:03;8.40;99.90
37050;DHT22;22958;51.232;6.826;2023-11-21T03:03:30;8.40;99.90
37050;DHT22;22958;51.232;6.826;2023-11-21T03:05:56;8.40;99.90
37050;DHT22;22958;51.232;6.826;2023-11-21T03:08:22;8.50;99.90
37050;DHT22;22958;51.232;6.826;2023-11-21T03:10:47;8.40;99.90
37050;DHT22;22958;51.232;6.826;2023-11-21T03:13:13;8.40;99.90
37050;DHT22;22958;51.232;6.826;2023-11-21T03:15:38;8.40;99.90
37050;DHT22;22958;51.232;6.826;2023-11-21T03:18:04;8.50;99.90
37050;DHT22;22958;51.232;6.826;2023-11-21T03:20:30;8.50;99.90
37050;DHT22;22958;51.232;6.826;2023-11-21T03:22:55;8.50;99.90
37050;DHT22;22958;51.232;6.826;2023-11-21T03:25:21;8.50;99.90
37050;DHT22;22958;51.232;6.826;2023-11-21T03:27:49;8.50;99.90
37050;DHT22;22958;51.232;6.826;2023-11-21T03:30:15;8.50;99.90
37050;DHT22;22958;51.232;6.826;2023-11-21T03:32:40;8.40;99.90
37050;DHT22;22958;51.232;6.826;2023-11-21T03:35:06;8.40;99.90
37050;DHT22;22958;51.232;6.826;2023-11-21T03:37:32;8.30;99.90
37050;DHT22;22958;51.232;6.826;2023-11-21T03:39:57;8.30;99.90
37050;DHT22;22958;51.232;6.826;2023-11-21T03:42:23;8.30;99.90
37050;DHT22;22958;51.232;6.826;2023-11-21T03:44:48;8.30;99.90
37050;DHT22;22958;51.232;6.826;2023-11-21T03:47:14;8.40;99.90
37050;DHT22;22958;51.232;6.826;2023-11-21T03:49:40;8.40;99.90
37050;DHT22;22958;51.232;6.826;2023-11-21T03:52:05;8.40;99.90
37050;DHT22;22958;51.232;6.826;2023-11-21T03:54:33;8.40;99.90
37050;DHT22;22958;51.232;6.826;2023-11-21T03:56:58;8.40;99.90
37050;DHT22;22958;51.232;6.826;2023-11-21T03:59:24;8.40;99.90
37050;DHT22;22958;51.232;6.826;2023-11-21T04:01:50;8.40;99.90
37050;DHT22;22958;51.232;6.826;2023-11-21T04:04:15;8.40;99.90
37050;DHT22;22958;51.232;6.826;2023-11-21T04:06:41;8.40;99.90
37050;DHT22;22958;51.232;6.826;2023-11-21T04:09:07;8.40;99.90
37050;DHT22;22958;51.232;6.826;2023-11-21T04:11:32;8.40;99.90
37050;DHT22;22958;51.232;6.826;2023-11-21T04:13:58;8.40;99.90
37050;DHT22;22958;51.232;6.826;2023-11-21T04:16:23;8.40;99.90
37050;DHT22;22958;51.232;6.826;2023-11-21T04:18:49;8.40;99.90
37050;DHT22;22958;51.232;6.826;2023-11-21T04:21:14;8.40;99.90
37050;DHT22;22958;51.232;6.826;2023-11-21T04:23:40;8.40;99.90
37050;DHT22;22958;51.232;6.826;2023-11-21T04:26:06;8.40;99.90
37050;DHT22;22958;51.232;6.826;2023-11-21T04:28:32;8.40;99.90
37050;DHT22;22958;51.232;6.826;2023-11-21T04:30:57;8.40;99.90
37050;DHT22;22958;51.232;6.826;2023-11-21T04:33:23;8.40;99.90
37050;DHT22;22958;51.232;6.826;2023-11-21T04:35:49;8.40;99.90
37050;DHT22;22958;51.232;6.826;2023-11-21T04:38:14;8.40;99.90
37050;DHT22;22958;51.232;6.826;2023-11-21T04:40:40;8.40;99.90
37050;DHT22;22958;51.232;6.826;2023-11-21T04:43:05;8.40;99.90
37050;DHT22;22958;51.232;6.826;2023-11-21T04:45:31;8.40;99.90
37050;DHT22;22958;51.232;6.826;2023-11-21T04:47:56;8.40;99.90
37050;DHT22;22958;51.232;6.826;2023-11-21T04:50:22;8.40;99.90
37050;DHT22;22958;51.232;6.826;2023-11-21T04:52:47;8.40;99.90
37050;DHT22;22958;51.232;6.826;2023-11-21T04:55:13;8.50;99.90
37050;DHT22;22958;51.232;6.826;2023-11-21T04:57:39;8.40;99.90
37050;DHT22;22958;51.232;6.826;2023-11-21T05:00:08;8.40;99.90
37050;DHT22;22958;51.232;6.826;2023-11-21T05:02:34;8.30;99.90
37050;DHT22;22958;51.232;6.826;2023-11-21T05:05:00;8.20;99.90
37050;DHT22;22958;51.232;6.826;2023-11-21T05:07:26;8.20;99.90
37050;DHT22;22958;51.232;6.826;2023-11-21T05:09:57;8.20;99.90
37050;DHT22;22958;51.232;6.826;2023-11-21T05:12:23;8.20;99.90
37050;DHT22;22958;51.232;6.826;2023-11-21T05:14:50;8.30;99.90
37050;DHT22;22958;51.232;6.826;2023-11-21T05:17:15;8.20;99.90
37050;DHT22;22958;51.232;6.826;2023-11-21T05:19:41;8.30;99.90
37050;DHT22;22958;51.232;6.826;2023-11-21T05:22:06;8.20;99.90
37050;DHT22;22958;51.232;6.826;2023-11-21T05:24:33;8.20;99.90
37050;DHT22;22958;51.232;6.826;2023-11-21T05:26:59;8.30;99.90
37050;DHT22;22958;51.232;6.826;2023-11-21T05:29:24;8.30;99.90
37050;DHT22;22958;51.232;6.826;2023-11-21T05:31:58;8.30;99.90
37050;DHT22;22958;51.232;6.826;2023-11-21T05:34:24;8.30;99.90
37050;DHT22;22958;51.232;6.826;2023-11-21T05:36:50;8.30;99.90
37050;DHT22;22958;51.232;6.826;2023-11-21T05:39:16;8.40;99.90
37050;DHT22;22958;51.232;6.826;2023-11-21T05:41:43;8.30;99.90
37050;DHT22;22958;51.232;6.826;2023-11-21T05:44:08;8.30;99.90
37050;DHT22;22958;51.232;6.826;2023-11-21T05:46:34;8.30;99.90
37050;DHT22;22958;51.232;6.826;2023-11-21T05:49:00;8.30;99.90
37050;DHT22;22958;51.232;6.826;2023-11-21T05:51:25;8.40;99.90
37050;DHT22;22958;51.232;6.826;2023-11-21T05:53:51;8.30;99.90
37050;DHT22;22958;51.232;6.826;2023-11-21T05:56:16;8.30;99.90
37050;DHT22;22958;51.232;6.826;2023-11-21T05:58:43;8.40;99.90
37050;DHT22;22958;51.232;6.826;2023-11-21T06:01:09;8.40;99.90
37050;DHT22;22958;51.232;6.826;2023-11-21T06:03:35;8.40;99.90
37050;DHT22;22958;51.232;6.826;2023-11-21T06:06:00;8.40;99.90
37050;DHT22;22958;51.232;6.826;2023-11-21T06:08:26;8.40;99.90
37050;DHT22;22958;51.232;6.826;2023-11-21T06:10:51;8.40;99.90
37050;DHT22;22958;51.232;6.826;2023-11-21T06:13:17;8.40;99.90
37050;DHT22;22958;51.232;6.826;2023-11-21T06:15:49;8.50;99.90
37050;DHT22;22958;51.232;6.826;2023-11-21T06:18:14;8.50;99.90
37050;DHT22;22958;51.232;6.826;2023-11-21T06:20:40;8.50;99.90
37050;DHT22;22958;51.232;6.826;2023-11-21T06:23:05;8.50;99.90
37050;DHT22;22958;51.232;6.826;2023-11-21T06:25:31;8.60;99.90
37050;DHT22;22958;51.232;6.826;2023-11-21T06:28:01;8.60;99.90
37050;DHT22;22958;51.232;6.826;2023-11-21T06:30:26;8.70;99.90
37050;DHT22;22958;51.232;6.826;2023-11-21T06:32:53;8.70;99.90
37050;DHT22;22958;51.232;6.826;2023-11-21T06:35:18;8.70;99.90
37050;DHT22;22958;51.232;6.826;2023-11-21T06:37:44;8.70;99.90
37050;DHT22;22958;51.232;6.826;2023-11-21T06:40:14;8.70;99.90
37050;DHT22;22958;51.232;6.826;2023-11-21T06:42:43;8.70;99.90
37050;DHT22;22958;51.232;6.826;2023-11-21T06:45:09;8.70;99.90
37050;DHT22;22958;51.232;6.826;2023-11-21T06:47:36;8.70;99.90
37050;DHT22;22958;51.232;6.826;2023-11-21T06:50:03;8.70;99.90
37050;DHT22;22958;51.232;6.826;2023-11-21T06:52:29;8.70;99.90
37050;DHT22;22958;51.232;6.826;2023-11-21T06:54:55;8.70;99.90
37050;DHT22;22958;51.232;6.826;2023-11-21T06:57:22;8.70;99.90
37050;DHT22;22958;51.232;6.826;2023-11-21T06:59:48;8.70;99.90
37050;DHT22;22958;51.232;6.826;2023-11-21T07:02:13;8.70;99.90
37050;DHT22;22958;51.232;6.826;2023-11-21T07:04:39;8.70;99.90
37050;DHT22;22958;51.232;6.826;2023-11-21T07:07:06;8.60;99.90
37050;DHT22;22958;51.232;6.826;2023-11-21T07:09:32;8.60;99.90
37050;DHT22;22958;51.232;6.826;2023-11-21T07:11:58;8.60;99.90
37050;DHT22;22958;51.232;6.826;2023-11-21T07:14:23;8.60;99.90
37050;DHT22;22958;51.232;6.826;2023-11-21T07:16:49;8.60;99.90
37050;DHT22;22958;51.232;6.826;2023-11-21T07:19:14;8.50;99.90
37050;DHT22;22958;51.232;6.826;2023-11-21T07:21:41;8.50;99.90
37050;DHT22;22958;51.232;6.826;2023-11-21T07:24:07;8.50;99.90
37050;DHT22;22958;51.232;6.826;2023-11-21T07:26:34;8.50;99.90
37050;DHT22;22958;51.232;6.826;2023-11-21T07:29:02;8.50;99.90
37050;DHT22;22958;51.232;6.826;2023-11-21T07:31:28;8.50;99.90
37050;DHT22;22958;51.232;6.826;2023-11-21T07:33:55;8.40;99.90
37050;DHT22;22958;51.232;6.826;2023-11-21T07:36:23;8.40;99.90
37050;DHT22;22958;51.232;6.826;2023-11-21T07:38:49;8.60;99.90
37050;DHT22;22958;51.232;6.826;2023-11-21T07:41:15;8.60;99.90
37050;DHT22;22958;51.232;6.826;2023-11-21T07:43:44;8.60;99.90
37050;DHT22;22958;51.232;6.826;2023-11-21T07:46:11;8.70;99.90
37050;DHT22;22958;51.232;6.826;2023-11-21T07:48:41;8.70;99.90
37050;DHT22;22958;51.232;6.826;2023-11-21T07:51:07;8.70;99.90
37050;DHT22;22958;51.232;6.826;2023-11-21T07:53:34;8.70;99.90
37050;DHT22;22958;51.232;6.826;2023-11-21T07:56:07;8.70;99.90
37050;DHT22;22958;51.232;6.826;2023-11-21T07:58:35;8.70;99.90
37050;DHT22;22958;51.232;6.826;2023-11-21T08:01:02;8.70;99.90
37050;DHT22;22958;51.232;6.826;2023-11-21T08:03:28;8.70;99.90
37050;DHT22;22958;51.232;6.826;2023-11-21T08:05:55;8.80;99.90
37050;DHT22;22958;51.232;6.826;2023-11-21T08:08:21;8.80;99.90
37050;DHT22;22958;51.232;6.826;2023-11-21T08:10:47;8.80;99.90
37050;DHT22;22958;51.232;6.826;2023-11-21T08:13:13;8.80;99.90
37050;DHT22;22958;51.232;6.826;2023-11-21T08:15:41;8.80;99.90
37050;DHT22;22958;51.232;6.826;2023-11-21T08:18:11;8.80;99.90
37050;DHT22;22958;51.232;6.826;2023-11-21T08:20:38;9.00;99.90
37050;DHT22;22958;51.232;6.826;2023-11-21T08:23:05;8.90;99.90
37050;DHT22;22958;51.232;6.826;2023-11-21T08:25:31;9.00;99.90
37050;DHT22;22958;51.232;6.826;2023-11-21T08:27:57;9.00;99.90
37050;DHT22;22958;51.232;6.826;2023-11-21T08:30:23;9.10;99.90
37050;DHT22;22958;51.232;6.826;2023-11-21T08:32:49;9.20;99.90
37050;DHT22;22958;51.232;6.826;2023-11-21T08:35:17;9.20;99.90
37050;DHT22;22958;51.232;6.826;2023-11-21T08:37:43;9.10;99.90
37050;DHT22;22958;51.232;6.826;2023-11-21T08:40:09;9.10;99.90
37050;DHT22;22958;51.232;6.826;2023-11-21T08:42:35;9.10;99.90
37050;DHT22;22958;51.232;6.826;2023-11-21T08:45:01;9.10;99.90
37050;DHT22;22958;51.232;6.826;2023-11-21T08:47:27;9.00;99.90
37050;DHT22;22958;51.232;6.826;2023-11-21T08:49:53;9.00;99.90
37050;DHT22;22958;51.232;6.826;2023-11-21T08:52:21;9.20;99.90
37050;DHT22;22958;51.232;6.826;2023-11-21T08:54:48;9.20;99.90
37050;DHT22;22958;51.232;6.826;2023-11-21T08:57:23;9.30;99.90
37050;DHT22;22958;51.232;6.826;2023-11-21T08:59:49;9.30;99.90
37050;DHT22;22958;51.232;6.826;2023-11-21T09:02:23;9.40;99.90
37050;DHT22;22958;51.232;6.826;2023-11-21T09:04:51;9.40;99.90
37050;DHT22;22958;51.232;6.826;2023-11-21T09:07:21;9.40;99.90
37050;DHT22;22958;51.232;6.826;2023-11-21T09:09:50;9.50;99.90
37050;DHT22;22958;51.232;6.826;2023-11-21T09:12:16;9.50;99.90
37050;DHT22;22958;51.232;6.826;2023-11-21T09:14:42;9.40;99.90
37050;DHT22;22958;51.232;6.826;2023-11-21T09:17:12;9.50;99.90
37050;DHT22;22958;51.232;6.826;2023-11-21T09:19:38;9.60;99.90
37050;DHT22;22958;51.232;6.826;2023-11-21T09:22:04;9.50;99.90
37050;DHT22;22958;51.232;6.826;2023-11-21T09:24:31;9.40;99.90
37050;DHT22;22958;51.232;6.826;2023-11-21T09:26:56;9.50;99.90
37050;DHT22;22958;51.232;6.826;2023-11-21T09:29:22;9.60;99.90
37050;DHT22;22958;51.232;6.826;2023-11-21T09:31:48;9.60;99.90
37050;DHT22;22958;51.232;6.826;2023-11-21T09:34:15;9.50;99.90
37050;DHT22;22958;51.232;6.826;2023-11-21T09:36:40;9.50;99.90
37050;DHT22;22958;51.232;6.826;2023-11-21T09:39:06;9.40;99.90
37050;DHT22;22958;51.232;6.826;2023-11-21T09:41:43;9.60;99.90
37050;DHT22;22958;51.232;6.826;2023-11-21T09:44:13;9.70;99.90
37050;DHT22;22958;51.232;6.826;2023-11-21T09:46:42;9.80;99.90
37050;DHT22;22958;51.232;6.826;2023-11-21T09:49:11;9.90;99.90
37050;DHT22;22958;51.232;6.826;2023-11-21T09:51:45;9.90;99.90
37050;DHT22;22958;51.232;6.826;2023-11-21T09:54:13;9.90;99.90
37050;DHT22;22958;51.232;6.826;2023-11-21T09:56:41;9.90;99.90
37050;DHT22;22958;51.232;6.826;2023-11-21T09:59:08;9.90;99.90
37050;DHT22;22958;51.232;6.826;2023-11-21T10:01:36;10.00;99.90
37050;DHT22;22958;51.232;6.826;2023-11-21T10:04:03;10.00;99.90
37050;DHT22;22958;51.232;6.826;2023-11-21T10:06:29;10.00;99.90
37050;DHT22;22958;51.232;6.826;2023-11-21T10:08:56;10.00;99.90
37050;DHT22;22958;51.232;6.826;2023-11-21T10:11:27;10.00;99.90
37050;DHT22;22958;51.232;6.826;2023-11-21T10:13:53;10.10;99.90
37050;DHT22;22958;51.232;6.826;2023-11-21T10:16:19;9.90;99.90
37050;DHT22;22958;51.232;6.826;2023-11-21T10:18:51;9.80;99.90
37050;DHT22;22958;51.232;6.826;2023-11-21T10:21:18;9.70;99.90
37050;DHT22;22958;51.232;6.826;2023-11-21T10:23:44;9.70;99.90
37050;DHT22;22958;51.232;6.826;2023-11-21T10:26:12;9.70;99.90
37050;DHT22;22958;51.232;6.826;2023-11-21T10:28:57;9.70;99.90
37050;DHT22;22958;51.232;6.826;2023-11-21T10:31:23;9.80;99.90
37050;DHT22;22958;51.232;6.826;2023-11-21T10:33:52;9.90;99.90
37050;DHT22;22958;51.232;6.826;2023-11-21T10:36:25;9.90;99.90
37050;DHT22;22958;51.232;6.826;2023-11-21T10:38:52;9.80;99.90
37050;DHT22;22958;51.232;6.826;2023-11-21T10:41:19;9.90;99.90
37050;DHT22;22958;51.232;6.826;2023-11-21T10:43:45;10.00;99.90
37050;DHT22;22958;51.232;6.826;2023-11-21T10:46:11;10.10;99.90
37050;DHT22;22958;51.232;6.826;2023-11-21T10:48:36;10.00;99.90
37050;DHT22;22958;51.232;6.826;2023-11-21T10:51:06;9.90;99.90
37050;DHT22;22958;51.232;6.826;2023-11-21T10:53:33;9.90;99.90
37050;DHT22;22958;51.232;6.826;2023-11-21T10:56:06;9.90;99.90
37050;DHT22;22958;51.232;6.826;2023-11-21T10:58:35;9.80;99.90
37050;DHT22;22958;51.232;6.826;2023-11-21T11:01:02;9.80;99.90
37050;DHT22;22958;51.232;6.826;2023-11-21T11:03:31;9.80;99.90
37050;DHT22;22958;51.232;6.826;2023-11-21T11:05:59;9.90;99.90
37050;DHT22;22958;51.232;6.826;2023-11-21T11:08:25;9.90;99.90
37050;DHT22;22958;51.232;6.826;2023-11-21T11:10:53;9.80;99.90
37050;DHT22;22958;51.232;6.826;2023-11-21T11:13:19;9.80;99.90
37050;DHT22;22958;51.232;6.826;2023-11-21T11:15:47;9.80;99.90
37050;DHT22;22958;51.232;6.826;2023-11-21T11:18:14;9.80;99.90
37050;DHT22;22958;51.232;6.826;2023-11-21T11:20:40;9.80;99.90
37050;DHT22;22958;51.232;6.826;2023-11-21T11:34:29;9.90;99.90
37050;DHT22;22958;51.232;6.826;2023-11-21T11:37:07;10.00;99.90
37050;DHT22;22958;51.232;6.826;2023-11-21T11:39:42;9.90;99.90
37050;DHT22;22958;51.232;6.826;2023-11-21T11:42:12;9.90;99.90
37050;DHT22;22958;51.232;6.826;2023-11-21T11:47:32;10.00;99.90
37050;DHT22;22958;51.232;6.826;2023-11-21T11:55:10;10.10;99.90
37050;DHT22;22958;51.232;6.826;2023-11-21T11:57:36;10.20;99.90
37050;DHT22;22958;51.232;6.826;2023-11-21T12:00:08;10.20;99.90
37050;DHT22;22958;51.232;6.826;2023-11-21T12:02:36;10.20;99.90
37050;DHT22;22958;51.232;6.826;2023-11-21T12:05:14;10.40;99.90
37050;DHT22;22958;51.232;6.826;2023-11-21T12:07:50;10.40;99.90
37050;DHT22;22958;51.232;6.826;2023-11-21T12:10:20;10.40;99.90
37050;DHT22;22958;51.232;6.826;2023-11-21T12:12:48;10.40;99.90
37050;DHT22;22958;51.232;6.826;2023-11-21T12:15:13;10.50;99.90
37050;DHT22;22958;51.232;6.826;2023-11-21T12:17:43;10.60;99.90
37050;DHT22;22958;51.232;6.826;2023-11-21T12:20:11;10.70;99.90
37050;DHT22;22958;51.232;6.826;2023-11-21T12:22:50;10.80;99.90
37050;DHT22;22958;51.232;6.826;2023-11-21T12:25:18;11.00;99.90
37050;DHT22;22958;51.232;6.826;2023-11-21T12:27:53;10.90;99.90
37050;DHT22;22958;51.232;6.826;2023-11-21T12:30:22;11.00;99.90
37050;DHT22;22958;51.232;6.826;2023-11-21T12:32:52;11.20;99.90
37050;DHT22;22958;51.232;6.826;2023-11-21T12:35:19;11.40;99.90
37050;DHT22;22958;51.232;6.826;2023-11-21T12:37:46;11.50;99.90
37050;DHT22;22958;51.232;6.826;2023-11-21T12:40:13;11.50;99.90
37050;DHT22;22958;51.232;6.826;2023-11-21T12:42:42;11.60;99.90
37050;DHT22;22958;51.232;6.826;2023-11-21T12:45:19;11.40;99.90
37050;DHT22;22958;51.232;6.826;2023-11-21T12:47:47;11.10;99.90
37050;DHT22;22958;51.232;6.826;2023-11-21T12:50:13;11.10;99.90
37050;DHT22;22958;51.232;6.826;2023-11-21T12:52:45;11.10;99.90
37050;DHT22;22958;51.232;6.826;2023-11-21T12:55:17;11.00;99.90
37050;DHT22;22958;51.232;6.826;2023-11-21T12:57:44;11.10;99.90
37050;DHT22;22958;51.232;6.826;2023-11-21T13:00:15;11.10;99.90
37050;DHT22;22958;51.232;6.826;2023-11-21T13:02:54;11.20;99.90
37050;DHT22;22958;51.232;6.826;2023-11-21T13:05:32;11.20;99.90
37050;DHT22;22958;51.232;6.826;2023-11-21T13:08:01;11.20;99.90
37050;DHT22;22958;51.232;6.826;2023-11-21T13:10:34;11.00;99.90
37050;DHT22;22958;51.232;6.826;2023-11-21T13:13:02;11.00;99.90
37050;DHT22;22958;51.232;6.826;2023-11-21T13:15:31;11.10;99.90
37050;DHT22;22958;51.232;6.826;2023-11-21T13:17:58;11.20;99.90
37050;DHT22;22958;51.232;6.826;2023-11-21T13:20:24;11.20;99.90
37050;DHT22;22958;51.232;6.826;2023-11-21T13:22:55;11.00;99.90
37050;DHT22;22958;51.232;6.826;2023-11-21T13:25:24;11.00;99.90
37050;DHT22;22958;51.232;6.826;2023-11-21T13:27:56;10.90;99.90
37050;DHT22;22958;51.232;6.826;2023-11-21T13:30:22;10.80;99.90
37050;DHT22;22958;51.232;6.826;2023-11-21T13:32:52;11.00;99.90
37050;DHT22;22958;51.232;6.826;2023-11-21T13:35:18;11.00;99.90
37050;DHT22;22958;51.232;6.826;2023-11-21T13:37:56;10.90;99.90
37050;DHT22;22958;51.232;6.826;2023-11-21T13:40:23;10.80;99.90
37050;DHT22;22958;51.232;6.826;2023-11-21T13:42:53;10.80;99.90
37050;DHT22;22958;51.232;6.826;2023-11-21T13:45:22;10.70;99.90
37050;DHT22;22958;51.232;6.826;2023-11-21T13:47:49;10.70;99.90
37050;DHT22;22958;51.232;6.826;2023-11-21T13:50:17;10.70;99.90
37050;DHT22;22958;51.232;6.826;2023-11-21T13:52:48;10.70;99.90
37050;DHT22;22958;51.232;6.826;2023-11-21T13:55:14;10.80;99.90
37050;DHT22;22958;51.232;6.826;2023-11-21T13:57:44;10.70;99.90
37050;DHT22;22958;51.232;6.826;2023-11-21T14:00:15;10.60;99.90
37050;DHT22;22958;51.232;6.826;2023-11-21T14:02:59;10.60;99.90
37050;DHT22;22958;51.232;6.826;2023-11-21T14:05:27;10.50;99.90
37050;DHT22;22958;51.232;6.826;2023-11-21T14:07:55;10.50;99.90
37050;DHT22;22958;51.232;6.826;2023-11-21T14:10:22;10.50;99.90
37050;DHT22;22958;51.232;6.826;2023-11-21T14:12:50;10.40;99.90
37050;DHT22;22958;51.232;6.826;2023-11-21T14:15:15;10.50;99.90
37050;DHT22;22958;51.232;6.826;2023-11-21T14:17:44;10.60;99.90
37050;DHT22;22958;51.232;6.826;2023-11-21T14:20:10;10.60;99.90
37050;DHT22;22958;51.232;6.826;2023-11-21T14:22:41;10.50;99.90
37050;DHT22;22958;51.232;6.826;2023-11-21T14:25:07;10.50;99.90
37050;DHT22;22958;51.232;6.826;2023-11-21T14:27:33;10.30;99.90
37050;DHT22;22958;51.232;6.826;2023-11-21T14:29:59;10.20;99.90
37050;DHT22;22958;51.232;6.826;2023-11-21T14:32:24;10.20;99.90
37050;DHT22;22958;51.232;6.826;2023-11-21T14:34:51;10.20;99.90
37050;DHT22;22958;51.232;6.826;2023-11-21T14:37:17;10.10;99.90
37050;DHT22;22958;51.232;6.826;2023-11-21T14:39:42;10.10;99.90
37050;DHT22;22958;51.232;6.826;2023-11-21T14:42:15;10.10;99.90
37050;DHT22;22958;51.232;6.826;2023-11-21T14:44:40;10.10;99.90
37050;DHT22;22958;51.232;6.826;2023-11-21T14:47:07;10.20;99.90
37050;DHT22;22958;51.232;6.826;2023-11-21T14:49:41;10.20;99.90
37050;DHT22;22958;51.232;6.826;2023-11-21T14:52:21;10.20;99.90
37050;DHT22;22958;51.232;6.826;2023-11-21T14:55:02;10.10;99.90
37050;DHT22;22958;51.232;6.826;2023-11-21T14:57:51;10.00;99.90
37050;DHT22;22958;51.232;6.826;2023-11-21T15:00:17;10.00;99.90
37050;DHT22;22958;51.232;6.826;2023-11-21T15:03:02;10.10;99.90
37050;DHT22;22958;51.232;6.826;2023-11-21T15:05:28;10.10;99.90
37050;DHT22;22958;51.232;6.826;2023-11-21T15:07:54;10.10;99.90
37050;DHT22;22958;51.232;6.826;2023-11-21T15:10:24;10.20;99.90
37050;DHT22;22958;51.232;6.826;2023-11-21T15:13:09;10.20;99.90
37050;DHT22;22958;51.232;6.826;2023-11-21T15:15:36;10.20;99.90
37050;DHT22;22958;51.232;6.826;2023-11-21T15:18:02;10.30;99.90
37050;DHT22;22958;51.232;6.826;2023-11-21T15:20:28;10.20;99.90
37050;DHT22;22958;51.232;6.826;2023-11-21T15:22:54;10.20;99.90
37050;DHT22;22958;51.232;6.826;2023-11-21T15:25:19;10.20;99.90
37050;DHT22;22958;51.232;6.826;2023-11-21T15:27:45;10.20;99.90
37050;DHT22;22958;51.232;6.826;2023-11-21T15:30:14;10.20;99.90
37050;DHT22;22958;51.232;6.826;2023-11-21T15:32:41;10.20;99.90
37050;DHT22;22958;51.232;6.826;2023-11-21T15:35:07;10.20;99.90
37050;DHT22;22958;51.232;6.826;2023-11-21T15:37:37;10.20;99.90
37050;DHT22;22958;51.232;6.826;2023-11-21T15:40:03;10.10;99.90
37050;DHT22;22958;51.232;6.826;2023-11-21T15:42:31;10.10;99.90
37050;DHT22;22958;51.232;6.826;2023-11-21T15:44:57;10.10;99.90
37050;DHT22;22958;51.232;6.826;2023-11-21T15:47:22;10.20;99.90
37050;DHT22;22958;51.232;6.826;2023-11-21T15:49:48;10.10;99.90
37050;DHT22;22958;51.232;6.826;2023-11-21T15:52:13;10.00;99.90
37050;DHT22;22958;51.232;6.826;2023-11-21T15:54:40;10.00;99.90
37050;DHT22;22958;51.232;6.826;2023-11-21T15:57:06;9.90;99.90
37050;DHT22;22958;51.232;6.826;2023-11-21T15:59:33;9.90;99.90
37050;DHT22;22958;51.232;6.826;2023-11-21T16:01:59;9.90;99.90